Terminal Aerodrome Forecast
Issued by NWS Tampa Bay Area, FL

Home | Current Version | Previous Version | Text Only | Print | Product List | Glossary On
Versions: 1 2 3 4 5 6 7 8 9 10 11 12 13 14
000
FTUS42 KTBW 011900 AAA
TAFSRQ
TAF AMD
KSRQ 011950Z 0120/0218 18014G21KT P6SM FEW050 SCT250
     FM012300 17009KT P6SM FEW050 SCT250
     FM020600 16009KT P6SM SCT015 BKN100
     FM020900 17009KT 6SM BR FEW007 SCT015 BKN035
     FM021300 22012G21KT P6SM VCSH SCT015 BKN025=

USA.gov is the U.S. government's official web portal to all federal, state and local government web resources and services.